createdAt,value
2017-05-08T00:01:01.125Z,45.66
2017-05-08T00:03:28.089Z,51.44
2017-05-08T00:05:55.075Z,48.64
2017-05-08T00:08:22.678Z,48.68
2017-05-08T00:10:49.675Z,43.00
2017-05-08T00:13:17.349Z,44.16
2017-05-08T00:15:44.280Z,47.50
2017-05-08T00:18:12.071Z,51.02
2017-05-08T00:20:39.050Z,50.12
2017-05-08T00:23:06.021Z,45.28
2017-05-08T00:25:33.759Z,45.14
2017-05-08T00:28:00.671Z,50.64
2017-05-08T00:30:27.624Z,51.14
2017-05-08T00:32:54.712Z,44.66
2017-05-08T00:35:21.706Z,47.98
2017-05-08T00:37:49.479Z,44.74
2017-05-08T00:40:16.486Z,45.98
2017-05-08T00:42:43.432Z,46.76
2017-05-08T00:45:10.420Z,47.66
2017-05-08T00:47:37.394Z,46.40
2017-05-08T00:50:04.411Z,43.62
2017-05-08T00:52:31.347Z,38.78
2017-05-08T00:54:58.359Z,48.84
2017-05-08T00:57:25.310Z,49.26
2017-05-08T00:59:52.254Z,51.48
2017-05-08T01:02:19.188Z,47.88
2017-05-08T01:04:46.180Z,49.48
2017-05-08T01:07:13.138Z,45.76
2017-05-08T01:09:40.091Z,47.40
2017-05-08T01:12:07.040Z,52.28
2017-05-08T01:14:33.996Z,53.50
2017-05-08T01:17:00.942Z,48.00
2017-05-08T01:19:27.916Z,44.80
2017-05-08T01:21:54.856Z,52.14
2017-05-08T01:24:21.798Z,49.38
2017-05-08T01:26:48.801Z,53.06
2017-05-08T01:29:15.744Z,52.74
2017-05-08T01:31:42.741Z,57.78
2017-05-08T01:34:09.701Z,52.54
2017-05-08T01:36:36.710Z,50.50
2017-05-08T01:39:03.669Z,54.04
2017-05-08T01:41:30.818Z,51.74
2017-05-08T01:43:57.813Z,49.52
2017-05-08T01:46:25.572Z,49.60
2017-05-08T01:48:52.517Z,41.72
2017-05-08T01:51:20.212Z,51.42
2017-05-08T01:53:47.125Z,51.94
2017-05-08T01:56:15.702Z,50.16
2017-05-08T01:58:42.628Z,48.52
2017-05-08T02:01:09.615Z,47.54
2017-05-08T02:03:36.585Z,41.54
2017-05-08T02:06:03.595Z,51.88
2017-05-08T02:08:31.248Z,52.06
2017-05-08T02:10:58.315Z,49.48
2017-05-08T02:13:26.043Z,53.46
2017-05-08T02:15:53.832Z,46.72
2017-05-08T02:18:20.791Z,46.78
2017-05-08T02:20:48.499Z,46.94
2017-05-08T02:23:15.545Z,42.20
2017-05-08T02:25:42.455Z,48.44
2017-05-08T02:28:09.464Z,39.04
2017-05-08T02:30:36.409Z,47.00
2017-05-08T02:33:03.531Z,47.82
2017-05-08T02:35:30.475Z,49.18
2017-05-08T02:37:57.526Z,44.88
2017-05-08T02:40:24.606Z,43.56
2017-05-08T02:42:52.459Z,37.90
2017-05-08T02:45:19.496Z,49.60
2017-05-08T02:47:46.446Z,35.26
2017-05-08T02:50:13.461Z,43.46
2017-05-08T02:52:40.611Z,42.22
2017-05-08T02:55:07.612Z,47.52
2017-05-08T02:57:34.607Z,42.70
2017-05-08T03:00:01.562Z,47.28
2017-05-08T03:02:28.518Z,44.94
2017-05-08T03:04:55.470Z,50.52
2017-05-08T03:07:22.425Z,46.54
2017-05-08T03:09:49.384Z,43.22
2017-05-08T03:12:16.343Z,45.72
2017-05-08T03:14:43.304Z,42.22
2017-05-08T03:17:11.027Z,41.64
2017-05-08T03:19:37.976Z,48.04
2017-05-08T03:22:04.931Z,46.78
2017-05-08T03:24:31.839Z,44.08
2017-05-08T03:26:58.795Z,44.10
2017-05-08T03:29:25.811Z,49.80
2017-05-08T03:31:52.801Z,43.92
2017-05-08T03:34:19.729Z,48.98
2017-05-08T03:36:46.671Z,45.36
2017-05-08T03:39:13.607Z,39.24
2017-05-08T03:41:40.579Z,47.32
2017-05-08T03:44:07.567Z,41.24
2017-05-08T03:46:34.570Z,41.40
2017-05-08T03:49:01.552Z,41.04
2017-05-08T03:51:30.160Z,39.72
2017-05-08T03:53:57.867Z,43.40
2017-05-08T03:56:24.842Z,39.68
2017-05-08T03:58:51.796Z,41.98
2017-05-08T04:01:18.745Z,40.62
2017-05-08T04:03:45.728Z,42.34
2017-05-08T04:06:12.659Z,42.66
2017-05-08T04:08:40.338Z,40.38
2017-05-08T04:11:07.267Z,38.58
2017-05-08T04:13:34.947Z,39.06
2017-05-08T04:16:02.007Z,40.84
2017-05-08T04:28:13.986Z,40.40
2017-05-08T04:30:41.881Z,43.20
2017-05-08T04:33:08.791Z,41.48
2017-05-08T04:35:35.878Z,40.38
2017-05-08T04:38:02.853Z,42.90
2017-05-08T04:40:29.806Z,40.36
2017-05-08T04:42:56.747Z,39.92
2017-05-08T04:45:23.741Z,42.20
2017-05-08T04:47:51.420Z,39.46
2017-05-08T04:50:19.203Z,43.64
2017-05-08T04:52:46.186Z,43.84
2017-05-08T04:55:13.115Z,41.50
2017-05-08T04:57:40.084Z,41.58
2017-05-08T05:00:07.040Z,43.26
2017-05-08T05:02:33.985Z,40.34
2017-05-08T05:05:00.992Z,44.82
2017-05-08T05:07:27.939Z,40.70
2017-05-08T05:09:55.800Z,44.18
2017-05-08T05:12:22.841Z,41.22
2017-05-08T05:14:49.799Z,45.52
2017-05-08T05:17:17.267Z,40.34
2017-05-08T05:19:44.264Z,42.54
2017-05-08T05:22:11.734Z,41.44
2017-05-08T05:24:38.838Z,41.74
2017-05-08T05:27:06.413Z,42.56
2017-05-08T05:29:33.410Z,38.40
2017-05-08T05:32:00.328Z,43.30
2017-05-08T05:34:26.543Z,42.58
2017-05-08T05:36:54.279Z,41.96
2017-05-08T05:39:21.229Z,38.44
2017-05-08T05:41:48.577Z,41.74
2017-05-08T05:44:16.441Z,41.76
2017-05-08T05:46:43.430Z,40.00
2017-05-08T05:49:11.184Z,39.58
2017-05-08T05:51:38.136Z,37.58
2017-05-08T05:54:05.861Z,42.20
2017-05-08T05:56:32.815Z,41.38
2017-05-08T05:58:59.863Z,40.36
2017-05-08T06:01:27.160Z,37.22
2017-05-08T06:03:54.872Z,32.98
2017-05-08T06:06:21.879Z,33.90
2017-05-08T06:08:48.869Z,34.58
2017-05-08T06:11:15.841Z,32.90
2017-05-08T06:13:42.859Z,31.60
2017-05-08T06:16:09.837Z,31.80
2017-05-08T06:18:36.801Z,34.32
2017-05-08T06:21:04.504Z,32.60
2017-05-08T06:23:31.492Z,29.62
2017-05-08T06:25:59.337Z,30.14
2017-05-08T06:28:26.293Z,31.94
2017-05-08T06:30:53.806Z,29.24
2017-05-08T06:33:20.743Z,30.42
2017-05-08T06:35:47.710Z,27.90
2017-05-08T06:38:14.728Z,29.26
2017-05-08T06:40:41.775Z,27.98
2017-05-08T06:43:09.557Z,28.62
2017-05-08T06:45:36.544Z,30.86
2017-05-08T06:48:18.576Z,27.72
2017-05-08T06:50:46.291Z,26.66
2017-05-08T06:53:13.231Z,28.32
2017-05-08T06:55:39.841Z,27.20
2017-05-08T06:58:06.870Z,28.58
2017-05-08T07:00:33.853Z,30.04
2017-05-08T07:03:00.853Z,29.28
2017-05-08T07:05:27.839Z,28.18
2017-05-08T07:07:55.446Z,27.30
2017-05-08T07:10:22.500Z,28.60
2017-05-08T07:12:50.361Z,31.58
2017-05-08T07:15:18.320Z,26.34
2017-05-08T07:17:45.318Z,25.22
2017-05-08T07:20:12.317Z,26.86
2017-05-08T07:22:39.667Z,27.06
2017-05-08T07:25:06.757Z,27.10
2017-05-08T07:27:34.445Z,26.76
2017-05-08T07:30:01.419Z,27.08
2017-05-08T07:32:28.447Z,28.68
2017-05-08T07:34:55.376Z,25.56
2017-05-08T07:37:22.647Z,26.28
2017-05-08T07:39:50.315Z,26.24
2017-05-08T07:42:17.292Z,27.22
2017-05-08T07:44:44.246Z,28.24
2017-05-08T07:47:11.230Z,25.08
2017-05-08T07:49:38.149Z,25.62
2017-05-08T07:52:06.311Z,27.64
2017-05-08T07:54:33.351Z,26.84
2017-05-08T07:57:00.308Z,25.04
2017-05-08T07:59:28.071Z,26.88
2017-05-08T08:01:55.065Z,26.64
2017-05-08T08:04:22.001Z,25.64
2017-05-08T08:06:49.743Z,24.38
2017-05-08T08:09:17.463Z,24.60
2017-05-08T08:11:45.513Z,24.78
2017-05-08T08:14:13.176Z,24.46
2017-05-08T08:16:40.144Z,22.68
2017-05-08T08:19:07.459Z,24.48
2017-05-08T08:21:35.272Z,25.84
2017-05-08T08:24:03.330Z,26.02
2017-05-08T08:26:30.292Z,23.68
2017-05-08T08:28:57.247Z,24.24
2017-05-08T08:31:24.607Z,25.44
2017-05-08T08:33:51.575Z,23.74
2017-05-08T08:36:19.338Z,25.52
2017-05-08T08:38:46.354Z,23.14
2017-05-08T08:50:58.365Z,24.00
2017-05-08T08:53:26.060Z,22.52
2017-05-08T08:55:53.661Z,23.36
2017-05-08T08:58:20.671Z,25.00
2017-05-08T09:00:49.070Z,23.72
2017-05-08T09:03:16.039Z,21.82
2017-05-08T09:05:42.981Z,24.44
2017-05-08T09:08:10.978Z,22.72
2017-05-08T09:10:38.790Z,23.28
2017-05-08T09:13:05.775Z,19.94
2017-05-08T09:15:32.806Z,24.88
2017-05-08T09:17:59.840Z,24.56
2017-05-08T09:20:26.898Z,22.88
2017-05-08T09:22:53.950Z,23.84
2017-05-08T09:25:20.903Z,24.74
2017-05-08T09:27:49.087Z,23.02
2017-05-08T09:30:16.106Z,20.44
2017-05-08T09:32:43.070Z,21.18
2017-05-08T09:35:10.005Z,19.26
2017-05-08T09:37:37.020Z,20.30
2017-05-08T09:40:04.090Z,16.64
2017-05-08T09:42:31.050Z,22.66
2017-05-08T09:44:58.770Z,18.82
2017-05-08T09:47:26.286Z,18.18
2017-05-08T09:49:53.263Z,20.28
2017-05-08T09:52:20.946Z,20.54
2017-05-08T09:54:48.662Z,20.14
2017-05-08T09:57:16.703Z,17.50
2017-05-08T09:59:44.065Z,21.86
2017-05-08T10:02:11.027Z,19.38
2017-05-08T10:04:38.028Z,20.60
2017-05-08T10:07:05.003Z,16.32
2017-05-08T10:09:32.055Z,17.62
2017-05-08T10:12:00.077Z,19.32
2017-05-08T10:14:27.869Z,18.36
2017-05-08T10:16:54.821Z,18.60
2017-05-08T10:19:21.784Z,16.70
2017-05-08T10:21:49.549Z,16.26
2017-05-08T10:24:16.493Z,17.20
2017-05-08T10:26:43.425Z,17.66
2017-05-08T10:29:10.431Z,18.34
2017-05-08T10:31:38.175Z,17.90
2017-05-08T10:34:05.184Z,16.38
2017-05-08T10:36:32.120Z,16.50
2017-05-08T10:38:59.088Z,15.92
2017-05-08T10:41:26.014Z,16.10
2017-05-08T10:43:53.029Z,16.05
2017-05-08T10:46:20.775Z,15.18
2017-05-08T10:48:47.827Z,14.02
2017-05-08T10:51:16.299Z,13.46
2017-05-08T10:53:43.303Z,14.40
2017-05-08T10:56:10.371Z,15.34
2017-05-08T10:58:37.399Z,15.48
2017-05-08T11:01:04.378Z,12.68
2017-05-08T11:03:31.393Z,12.84
2017-05-08T11:05:58.410Z,12.34
2017-05-08T11:08:26.125Z,11.20
2017-05-08T11:10:53.069Z,11.04
2017-05-08T11:13:20.084Z,10.98
2017-05-08T11:15:47.095Z,11.52
2017-05-08T11:18:14.119Z,10.26
2017-05-08T11:20:41.168Z,11.08
2017-05-08T11:23:08.203Z,10.90
2017-05-08T11:25:35.325Z,12.06
2017-05-08T11:28:02.336Z,10.22
2017-05-08T11:30:29.388Z,11.16
2017-05-08T11:32:56.344Z,12.12
2017-05-08T11:35:24.176Z,11.84
2017-05-08T11:37:51.136Z,12.20
2017-05-08T11:40:18.129Z,11.88
2017-05-08T11:42:45.084Z,12.32
2017-05-08T11:45:12.084Z,11.56
2017-05-08T11:47:39.117Z,10.62
2017-05-08T11:50:06.079Z,9.78
2017-05-08T11:52:34.020Z,10.32
2017-05-08T11:55:01.325Z,8.50
2017-05-08T11:57:29.036Z,8.78
2017-05-08T11:59:55.965Z,9.08
2017-05-08T12:02:22.898Z,9.06
2017-05-08T12:04:49.947Z,8.74
2017-05-08T12:07:16.991Z,8.90
2017-05-08T12:09:43.924Z,8.32
2017-05-08T12:12:12.407Z,8.82
2017-05-08T12:14:40.079Z,7.36
2017-05-08T12:17:07.054Z,11.12
2017-05-08T12:19:34.020Z,8.64
2017-05-08T12:22:01.046Z,7.14
2017-05-08T12:24:27.998Z,7.14
2017-05-08T12:26:54.943Z,6.90
2017-05-08T12:29:23.846Z,5.60
2017-05-08T12:31:50.957Z,7.08
2017-05-08T12:34:17.881Z,5.16
2017-05-08T12:36:45.572Z,7.02
2017-05-08T12:39:12.587Z,6.44
2017-05-08T12:41:40.273Z,5.76
2017-05-08T12:44:08.944Z,6.12
2017-05-08T12:46:36.652Z,6.28
2017-05-08T12:49:04.409Z,5.56
2017-05-08T12:51:31.365Z,7.02
2017-05-08T12:53:58.754Z,6.92
2017-05-08T12:56:25.730Z,5.74
2017-05-08T12:58:53.413Z,7.24
2017-05-08T13:01:20.387Z,7.68
2017-05-08T13:03:47.546Z,6.64
2017-05-08T13:06:14.500Z,7.90
2017-05-08T13:08:41.513Z,7.26
2017-05-08T13:11:08.448Z,7.12
2017-05-08T13:13:35.429Z,7.44
2017-05-08T13:16:02.439Z,8.74
2017-05-08T13:18:29.367Z,7.22
2017-05-08T13:20:57.070Z,6.52
2017-05-08T13:23:24.047Z,7.54
2017-05-08T13:25:51.033Z,7.20
2017-05-08T13:28:17.993Z,9.88
2017-05-08T13:30:45.027Z,7.38
2017-05-08T13:33:11.979Z,7.40
2017-05-08T13:35:38.916Z,8.16
2017-05-08T13:38:05.879Z,9.12
2017-05-08T13:40:32.861Z,9.36
2017-05-08T13:42:59.828Z,9.82
2017-05-08T13:45:27.712Z,11.42
2017-05-08T13:47:55.432Z,11.78
2017-05-08T13:50:22.427Z,12.70
2017-05-08T13:52:50.124Z,14.52
2017-05-08T13:55:17.067Z,14.24
2017-05-08T13:57:44.028Z,15.52
2017-05-08T14:00:10.997Z,13.90
2017-05-08T14:02:37.995Z,14.32
2017-05-08T14:05:04.967Z,14.92
2017-05-08T14:07:31.894Z,17.68
2017-05-08T14:09:58.830Z,16.28
2017-05-08T14:12:26.013Z,18.14
2017-05-08T14:14:53.062Z,16.96
2017-05-08T14:17:20.077Z,16.76
2017-05-08T14:19:47.049Z,18.14
2017-05-08T14:22:14.027Z,18.14
2017-05-08T14:24:40.989Z,17.74
2017-05-08T14:27:07.932Z,18.02
2017-05-08T14:29:34.855Z,17.10
2017-05-08T14:32:01.864Z,15.84
2017-05-08T14:34:28.864Z,14.92
2017-05-08T14:36:55.788Z,14.58
2017-05-08T14:39:22.729Z,14.18
2017-05-08T14:41:49.700Z,13.08
2017-05-08T14:44:16.624Z,13.02
2017-05-08T14:46:43.611Z,12.26
2017-05-08T14:49:11.299Z,11.72
2017-05-08T14:51:38.235Z,11.82
2017-05-08T14:54:05.170Z,11.14
2017-05-08T14:56:32.833Z,10.96
2017-05-08T14:59:00.487Z,10.04
2017-05-08T15:01:28.149Z,10.08
2017-05-08T15:03:55.882Z,10.54
2017-05-08T15:06:22.802Z,9.96
2017-05-08T15:08:49.786Z,10.00
2017-05-08T15:11:16.732Z,10.74
2017-05-08T15:13:43.657Z,10.30
2017-05-08T15:16:10.643Z,8.90
2017-05-08T15:18:38.357Z,10.24
2017-05-08T15:21:05.309Z,10.58
2017-05-08T15:23:32.360Z,9.28
2017-05-08T15:25:59.316Z,9.26
2017-05-08T15:28:26.299Z,10.14
2017-05-08T15:30:53.954Z,8.86
2017-05-08T15:33:20.920Z,9.70
2017-05-08T15:35:48.625Z,9.12
2017-05-08T15:38:15.559Z,8.94
2017-05-08T15:40:42.510Z,8.20
2017-05-08T15:43:09.500Z,8.62
2017-05-08T15:45:37.201Z,8.76
2017-05-08T15:48:04.155Z,9.74
2017-05-08T15:50:32.175Z,8.86
2017-05-08T15:52:59.107Z,8.80
2017-05-08T15:55:26.304Z,9.12
2017-05-08T15:57:53.263Z,10.14
2017-05-08T16:00:20.229Z,9.30
2017-05-08T16:02:47.197Z,9.90
2017-05-08T16:05:14.195Z,9.76
2017-05-08T16:07:41.166Z,9.72
2017-05-08T16:10:08.153Z,9.84
2017-05-08T16:12:35.055Z,10.06
2017-05-08T16:15:01.977Z,10.30
2017-05-08T16:17:28.968Z,9.90
2017-05-08T16:19:55.876Z,10.50
2017-05-08T16:22:22.829Z,11.56
2017-05-08T16:24:49.869Z,10.70
2017-05-08T16:27:16.816Z,11.42
2017-05-08T16:29:43.851Z,10.16
2017-05-08T16:32:10.815Z,12.06
2017-05-08T16:34:38.372Z,11.24
2017-05-08T16:37:05.356Z,11.54
2017-05-08T16:52:34.067Z,11.64
2017-05-08T16:55:01.737Z,11.60
2017-05-08T16:57:29.448Z,11.34
2017-05-08T16:59:56.459Z,50.80
2017-05-08T17:02:23.683Z,38.82
2017-05-08T17:04:50.643Z,23.06
2017-05-08T17:07:18.323Z,11.04
2017-05-08T17:09:45.417Z,13.16
2017-05-08T17:12:12.380Z,12.88
2017-05-08T17:14:39.667Z,13.62
2017-05-08T17:17:06.643Z,14.38
2017-05-08T17:19:33.599Z,12.22
2017-05-08T17:22:00.596Z,11.62
2017-05-08T17:24:28.269Z,12.60
2017-05-08T17:26:55.220Z,12.32
2017-05-08T17:29:22.179Z,11.62
2017-05-08T17:31:49.123Z,12.18
2017-05-08T17:34:16.089Z,11.94
2017-05-08T17:36:43.025Z,11.76
2017-05-08T17:39:09.961Z,12.32
2017-05-08T17:41:37.252Z,12.92
2017-05-08T17:44:04.155Z,11.28
2017-05-08T17:46:31.327Z,18.58
2017-05-08T17:48:58.308Z,14.08
2017-05-08T17:51:25.999Z,12.70
2017-05-08T17:53:53.714Z,10.22
2017-05-08T17:56:21.812Z,12.84
2017-05-08T17:58:48.745Z,10.82
2017-05-08T18:01:15.688Z,10.42
2017-05-08T18:03:42.922Z,10.60
2017-05-08T18:06:10.625Z,10.86
2017-05-08T18:08:37.551Z,10.70
2017-05-08T18:11:04.561Z,10.00
2017-05-08T18:13:31.556Z,11.22
2017-05-08T18:15:59.464Z,10.54
2017-05-08T18:18:26.447Z,11.80
2017-05-08T18:20:53.394Z,10.46
2017-05-08T18:23:20.507Z,10.22
2017-05-08T18:25:47.435Z,10.40
2017-05-08T18:28:15.305Z,12.56
2017-05-08T18:30:43.104Z,12.04
2017-05-08T18:33:10.110Z,11.30
2017-05-08T18:35:38.011Z,10.62
2017-05-08T18:38:05.061Z,11.06
2017-05-08T18:40:32.031Z,10.34
2017-05-08T18:42:59.048Z,10.48
2017-05-08T18:45:26.030Z,10.42
2017-05-08T18:47:52.984Z,9.96
2017-05-08T18:50:20.020Z,10.32
2017-05-08T18:52:46.978Z,9.96
2017-05-08T18:55:13.932Z,8.70
2017-05-08T18:57:40.947Z,8.64
2017-05-08T19:00:07.934Z,8.68
2017-05-08T19:02:34.926Z,8.30
2017-05-08T19:05:01.989Z,8.50
2017-05-08T19:07:29.021Z,10.56
2017-05-08T19:09:56.020Z,10.80
2017-05-08T19:12:23.007Z,9.50
2017-05-08T19:14:49.970Z,9.00
2017-05-08T19:17:17.011Z,9.40
2017-05-08T19:19:43.976Z,8.92
2017-05-08T19:22:10.954Z,8.66
2017-05-08T19:24:37.973Z,8.64
2017-05-08T19:27:04.935Z,8.92
2017-05-08T19:29:31.908Z,8.90
2017-05-08T19:31:59.756Z,11.60
2017-05-08T19:34:26.733Z,11.40
2017-05-08T19:36:54.412Z,9.96
2017-05-08T19:39:21.510Z,7.88
2017-05-08T19:41:48.480Z,8.62
2017-05-08T19:44:16.184Z,9.36
2017-05-08T19:46:43.658Z,8.02
2017-05-08T19:49:10.693Z,9.84
2017-05-08T19:51:37.910Z,9.92
2017-05-08T19:54:05.640Z,10.18
2017-05-08T19:56:32.619Z,8.82
2017-05-08T19:59:00.478Z,9.26
2017-05-08T20:01:28.156Z,9.36
2017-05-08T20:03:55.865Z,11.26
2017-05-08T20:06:25.331Z,10.84
2017-05-08T20:08:53.606Z,11.32
2017-05-08T20:11:20.606Z,11.68
2017-05-08T20:13:47.607Z,11.22
2017-05-08T20:16:14.561Z,13.48
2017-05-08T20:18:41.688Z,12.40
2017-05-08T20:21:09.427Z,13.10
2017-05-08T20:23:37.178Z,12.92
2017-05-08T20:26:04.190Z,13.32
2017-05-08T20:28:31.976Z,14.30
2017-05-08T20:30:58.928Z,14.42
2017-05-08T20:33:27.298Z,12.82
2017-05-08T20:35:54.829Z,12.82
2017-05-08T20:38:22.763Z,13.58
2017-05-08T20:40:49.961Z,13.16
2017-05-08T20:43:16.898Z,12.70
2017-05-08T20:45:43.906Z,12.96
2017-05-08T20:48:10.890Z,13.48
2017-05-08T20:50:37.869Z,16.44
2017-05-08T20:53:05.080Z,14.28
2017-05-08T20:55:32.838Z,13.46
2017-05-08T20:58:00.564Z,13.20
2017-05-08T21:00:27.484Z,13.86
2017-05-08T21:02:55.336Z,13.18
2017-05-08T21:15:08.332Z,12.72
2017-05-08T21:17:35.314Z,13.64
2017-05-08T21:20:02.303Z,15.20
2017-05-08T21:22:28.898Z,14.82
2017-05-08T21:24:55.866Z,13.76
2017-05-08T21:27:22.800Z,14.96
2017-05-08T21:29:49.788Z,15.24
2017-05-08T21:32:16.740Z,15.00
2017-05-08T21:34:44.296Z,16.06
2017-05-08T21:37:11.239Z,14.44
2017-05-08T21:39:38.195Z,15.30
2017-05-08T21:42:05.142Z,16.44
2017-05-08T21:44:32.148Z,15.74
2017-05-08T21:46:59.102Z,14.86
2017-05-08T21:49:26.886Z,16.00
2017-05-08T21:51:54.719Z,16.00
2017-05-08T21:54:21.752Z,14.62
2017-05-08T21:56:48.801Z,15.74
2017-05-08T21:59:15.832Z,15.12
2017-05-08T22:01:42.793Z,15.70
2017-05-08T22:04:09.760Z,15.30
2017-05-08T22:06:36.745Z,15.50
2017-05-08T22:09:03.744Z,15.78
2017-05-08T22:11:30.705Z,14.80
2017-05-08T22:13:57.622Z,14.44
2017-05-08T22:16:25.505Z,14.76
2017-05-08T22:18:52.523Z,14.62
2017-05-08T22:21:19.474Z,15.32
2017-05-08T22:23:46.462Z,15.44
2017-05-08T22:26:14.181Z,14.46
2017-05-08T22:28:41.132Z,13.50
2017-05-08T22:31:08.060Z,14.92
2017-05-08T22:33:35.103Z,14.74
2017-05-08T22:36:02.072Z,14.56
2017-05-08T22:38:29.100Z,14.60
2017-05-08T22:40:56.164Z,13.90
2017-05-08T22:43:23.148Z,12.52
2017-05-08T22:45:50.897Z,13.56
2017-05-08T22:48:17.941Z,14.30
2017-05-08T22:50:44.867Z,13.94
2017-05-08T22:53:11.837Z,13.14
2017-05-08T22:55:38.791Z,14.04
2017-05-08T22:58:06.678Z,12.82
2017-05-08T23:00:34.420Z,13.02
2017-05-08T23:03:01.360Z,13.40
2017-05-08T23:05:28.346Z,12.18
2017-05-08T23:07:56.246Z,13.06
2017-05-08T23:10:23.209Z,13.38
2017-05-08T23:12:51.051Z,12.96
2017-05-08T23:15:18.040Z,13.52
2017-05-08T23:17:45.031Z,13.60
2017-05-08T23:20:11.993Z,13.18
2017-05-08T23:22:39.508Z,13.56
2017-05-08T23:25:06.484Z,14.64
2017-05-08T23:27:33.390Z,12.78
2017-05-08T23:30:00.361Z,13.52
2017-05-08T23:32:27.299Z,14.02
2017-05-08T23:34:54.261Z,13.40
2017-05-08T23:37:21.291Z,12.62
2017-05-08T23:39:48.969Z,12.96
2017-05-08T23:42:15.911Z,13.98
2017-05-08T23:44:43.588Z,12.96
2017-05-08T23:47:10.527Z,12.38
2017-05-08T23:49:37.491Z,11.96
2017-05-08T23:52:04.444Z,12.60
2017-05-08T23:54:31.382Z,12.48
2017-05-08T23:56:58.325Z,12.54
2017-05-08T23:59:25.271Z,13.60
